Ash Shariqah, United Arab Emirates
Current Conditions -  °F | °C
As of 10:00 AM on Monday 22 Dec 2014 (Local Time) from OMSJ Reporting Station
Clear Clear  
Wind Chill: 68°   Ceiling: Unl
Heat Index: 68°   Visibility: 6mi
Dew Point: 54°   Wind: 8mph
Humidity: 60%   Direction: 190°S
Pressure: 30.03"   Gusts: NA
Location:  25.37°N, 55.41°E
Report Text: OMSJ 220600Z 19007KT 160V230 CAVOK 20/12 Q1017
Loading
Personal Weather Stations






























Interactive Weather Map New forecast layout! Learn more

10-Day Weather Forecast

Advertisements
Track Severe Weather on mobile